sensor_id;sensor_type;location;lat;lon;timestamp;P1;durP1;ratioP1;P2;durP2;ratioP2
42198;SDS011;27868;45.184;5.786;2022-12-20T00:02:20;11.20;;;4.97;;
42198;SDS011;27868;45.184;5.786;2022-12-20T00:05:05;10.00;;;5.43;;
42198;SDS011;27868;45.184;5.786;2022-12-20T00:07:50;10.75;;;5.57;;
42198;SDS011;27868;45.184;5.786;2022-12-20T00:10:35;11.48;;;5.75;;
42198;SDS011;27868;45.184;5.786;2022-12-20T00:16:10;10.05;;;5.22;;
42198;SDS011;27868;45.184;5.786;2022-12-20T00:18:58;11.75;;;5.80;;
42198;SDS011;27868;45.184;5.786;2022-12-20T00:21:45;12.18;;;6.65;;
42198;SDS011;27868;45.184;5.786;2022-12-20T00:24:30;11.55;;;5.80;;
42198;SDS011;27868;45.184;5.786;2022-12-20T00:27:18;10.63;;;5.45;;
42198;SDS011;27868;45.184;5.786;2022-12-20T00:30:03;11.65;;;5.47;;
42198;SDS011;27868;45.184;5.786;2022-12-20T00:32:49;13.70;;;5.60;;
42198;SDS011;27868;45.184;5.786;2022-12-20T00:35:34;11.07;;;5.47;;
42198;SDS011;27868;45.184;5.786;2022-12-20T00:38:19;12.02;;;5.72;;
42198;SDS011;27868;45.184;5.786;2022-12-20T00:41:05;11.98;;;5.50;;
42198;SDS011;27868;45.184;5.786;2022-12-20T00:43:52;11.95;;;5.68;;
42198;SDS011;27868;45.184;5.786;2022-12-20T00:46:37;17.27;;;5.20;;
42198;SDS011;27868;45.184;5.786;2022-12-20T00:49:22;10.45;;;5.60;;
42198;SDS011;27868;45.184;5.786;2022-12-20T00:52:07;9.60;;;5.63;;
42198;SDS011;27868;45.184;5.786;2022-12-20T00:54:52;12.13;;;5.55;;
42198;SDS011;27868;45.184;5.786;2022-12-20T00:57:37;11.07;;;5.53;;
42198;SDS011;27868;45.184;5.786;2022-12-20T01:00:39;8.32;;;4.90;;
42198;SDS011;27868;45.184;5.786;2022-12-20T01:03:25;13.10;;;6.07;;
42198;SDS011;27868;45.184;5.786;2022-12-20T01:06:10;12.13;;;6.55;;
42198;SDS011;27868;45.184;5.786;2022-12-20T01:08:55;14.57;;;6.07;;
42198;SDS011;27868;45.184;5.786;2022-12-20T01:11:41;13.43;;;6.00;;
42198;SDS011;27868;45.184;5.786;2022-12-20T01:14:25;14.40;;;6.07;;
42198;SDS011;27868;45.184;5.786;2022-12-20T01:17:10;12.52;;;6.20;;
42198;SDS011;27868;45.184;5.786;2022-12-20T01:19:54;16.30;;;6.30;;
42198;SDS011;27868;45.184;5.786;2022-12-20T01:22:39;12.10;;;5.78;;
42198;SDS011;27868;45.184;5.786;2022-12-20T01:25:24;12.15;;;6.35;;
42198;SDS011;27868;45.184;5.786;2022-12-20T01:28:09;11.05;;;5.50;;
42198;SDS011;27868;45.184;5.786;2022-12-20T01:30:53;9.63;;;5.20;;
42198;SDS011;27868;45.184;5.786;2022-12-20T01:33:38;9.23;;;5.25;;
42198;SDS011;27868;45.184;5.786;2022-12-20T01:36:24;9.55;;;5.13;;
42198;SDS011;27868;45.184;5.786;2022-12-20T01:39:12;12.40;;;5.80;;
42198;SDS011;27868;45.184;5.786;2022-12-20T01:41:58;10.02;;;5.40;;
42198;SDS011;27868;45.184;5.786;2022-12-20T01:47:29;11.18;;;5.45;;
42198;SDS011;27868;45.184;5.786;2022-12-20T01:50:17;11.68;;;5.13;;
42198;SDS011;27868;45.184;5.786;2022-12-20T01:53:03;10.57;;;5.90;;
42198;SDS011;27868;45.184;5.786;2022-12-20T01:55:48;10.82;;;5.50;;
42198;SDS011;27868;45.184;5.786;2022-12-20T01:58:33;12.18;;;5.45;;
42198;SDS011;27868;45.184;5.786;2022-12-20T02:01:21;11.73;;;5.30;;
42198;SDS011;27868;45.184;5.786;2022-12-20T02:04:07;12.07;;;5.13;;
42198;SDS011;27868;45.184;5.786;2022-12-20T02:06:53;13.85;;;4.82;;
42198;SDS011;27868;45.184;5.786;2022-12-20T02:09:37;9.95;;;5.05;;
42198;SDS011;27868;45.184;5.786;2022-12-20T02:12:23;10.32;;;5.00;;
42198;SDS011;27868;45.184;5.786;2022-12-20T02:15:20;8.82;;;5.07;;
42198;SDS011;27868;45.184;5.786;2022-12-20T02:21:36;10.90;;;5.32;;
42198;SDS011;27868;45.184;5.786;2022-12-20T02:31:03;12.00;;;5.38;;
42198;SDS011;27868;45.184;5.786;2022-12-20T02:33:52;11.95;;;6.13;;
42198;SDS011;27868;45.184;5.786;2022-12-20T02:36:40;10.10;;;4.63;;
42198;SDS011;27868;45.184;5.786;2022-12-20T02:39:25;11.30;;;5.25;;
42198;SDS011;27868;45.184;5.786;2022-12-20T02:42:14;10.32;;;4.93;;
42198;SDS011;27868;45.184;5.786;2022-12-20T02:45:06;11.25;;;4.80;;
42198;SDS011;27868;45.184;5.786;2022-12-20T02:48:02;11.38;;;5.32;;
42198;SDS011;27868;45.184;5.786;2022-12-20T02:50:51;10.60;;;4.82;;
42198;SDS011;27868;45.184;5.786;2022-12-20T02:53:39;8.75;;;4.38;;
42198;SDS011;27868;45.184;5.786;2022-12-20T02:56:35;9.60;;;4.80;;
42198;SDS011;27868;45.184;5.786;2022-12-20T03:00:39;10.10;;;4.55;;
42198;SDS011;27868;45.184;5.786;2022-12-20T03:04:27;9.23;;;4.82;;
42198;SDS011;27868;45.184;5.786;2022-12-20T03:07:14;8.70;;;4.53;;
42198;SDS011;27868;45.184;5.786;2022-12-20T03:10:02;9.65;;;4.82;;
42198;SDS011;27868;45.184;5.786;2022-12-20T03:17:17;9.32;;;4.95;;
42198;SDS011;27868;45.184;5.786;2022-12-20T03:20:04;9.70;;;4.40;;
42198;SDS011;27868;45.184;5.786;2022-12-20T03:22:50;9.13;;;4.50;;
42198;SDS011;27868;45.184;5.786;2022-12-20T03:25:34;9.63;;;5.03;;
42198;SDS011;27868;45.184;5.786;2022-12-20T03:28:20;9.23;;;5.22;;
42198;SDS011;27868;45.184;5.786;2022-12-20T03:31:04;10.07;;;5.28;;
42198;SDS011;27868;45.184;5.786;2022-12-20T03:33:50;9.60;;;4.63;;
42198;SDS011;27868;45.184;5.786;2022-12-20T03:36:35;9.13;;;4.53;;
42198;SDS011;27868;45.184;5.786;2022-12-20T03:39:20;8.57;;;4.43;;
42198;SDS011;27868;45.184;5.786;2022-12-20T03:42:05;11.00;;;4.55;;
42198;SDS011;27868;45.184;5.786;2022-12-20T03:44:55;8.50;;;4.28;;
42198;SDS011;27868;45.184;5.786;2022-12-20T03:48:13;11.15;;;5.03;;
42198;SDS011;27868;45.184;5.786;2022-12-20T03:50:57;9.13;;;4.53;;
42198;SDS011;27868;45.184;5.786;2022-12-20T03:53:42;6.95;;;3.78;;
42198;SDS011;27868;45.184;5.786;2022-12-20T03:56:27;7.38;;;3.95;;
42198;SDS011;27868;45.184;5.786;2022-12-20T04:00:20;7.35;;;3.65;;
42198;SDS011;27868;45.184;5.786;2022-12-20T04:04:12;6.95;;;3.72;;
42198;SDS011;27868;45.184;5.786;2022-12-20T04:06:57;7.65;;;3.72;;
42198;SDS011;27868;45.184;5.786;2022-12-20T04:09:42;7.85;;;3.67;;
42198;SDS011;27868;45.184;5.786;2022-12-20T04:12:28;8.75;;;4.13;;
42198;SDS011;27868;45.184;5.786;2022-12-20T04:15:21;7.05;;;3.90;;
42198;SDS011;27868;45.184;5.786;2022-12-20T04:18:52;10.07;;;4.18;;
42198;SDS011;27868;45.184;5.786;2022-12-20T04:21:38;7.47;;;3.85;;
42198;SDS011;27868;45.184;5.786;2022-12-20T04:25:22;8.18;;;3.78;;
42198;SDS011;27868;45.184;5.786;2022-12-20T04:29:11;12.15;;;3.60;;
42198;SDS011;27868;45.184;5.786;2022-12-20T04:31:56;10.52;;;3.90;;
42198;SDS011;27868;45.184;5.786;2022-12-20T04:34:41;6.75;;;3.35;;
42198;SDS011;27868;45.184;5.786;2022-12-20T04:37:26;8.85;;;3.78;;
42198;SDS011;27868;45.184;5.786;2022-12-20T04:40:11;7.43;;;3.78;;
42198;SDS011;27868;45.184;5.786;2022-12-20T04:42:56;7.72;;;3.90;;
42198;SDS011;27868;45.184;5.786;2022-12-20T04:45:41;7.60;;;3.85;;
42198;SDS011;27868;45.184;5.786;2022-12-20T04:48:39;7.55;;;3.75;;
42198;SDS011;27868;45.184;5.786;2022-12-20T04:52:47;6.20;;;3.65;;
42198;SDS011;27868;45.184;5.786;2022-12-20T04:56:29;8.05;;;3.97;;
42198;SDS011;27868;45.184;5.786;2022-12-20T05:00:08;7.57;;;3.63;;
42198;SDS011;27868;45.184;5.786;2022-12-20T05:03:53;9.23;;;4.87;;
42198;SDS011;27868;45.184;5.786;2022-12-20T05:07:43;8.68;;;4.15;;
42198;SDS011;27868;45.184;5.786;2022-12-20T05:10:28;6.75;;;3.45;;
42198;SDS011;27868;45.184;5.786;2022-12-20T05:13:13;7.65;;;4.10;;
42198;SDS011;27868;45.184;5.786;2022-12-20T05:15:57;7.55;;;3.60;;
42198;SDS011;27868;45.184;5.786;2022-12-20T05:18:42;7.25;;;3.67;;
42198;SDS011;27868;45.184;5.786;2022-12-20T05:21:27;9.13;;;3.95;;
42198;SDS011;27868;45.184;5.786;2022-12-20T05:24:30;9.73;;;4.13;;
42198;SDS011;27868;45.184;5.786;2022-12-20T05:27:34;6.93;;;4.22;;
42198;SDS011;27868;45.184;5.786;2022-12-20T05:30:19;8.70;;;4.28;;
42198;SDS011;27868;45.184;5.786;2022-12-20T05:33:04;8.68;;;4.28;;
42198;SDS011;27868;45.184;5.786;2022-12-20T05:35:49;8.20;;;4.07;;
42198;SDS011;27868;45.184;5.786;2022-12-20T05:38:33;9.93;;;4.30;;
42198;SDS011;27868;45.184;5.786;2022-12-20T05:41:21;8.13;;;4.90;;
42198;SDS011;27868;45.184;5.786;2022-12-20T05:45:10;9.25;;;4.43;;
42198;SDS011;27868;45.184;5.786;2022-12-20T05:48:22;10.30;;;4.65;;
42198;SDS011;27868;45.184;5.786;2022-12-20T05:52:17;10.40;;;4.38;;
42198;SDS011;27868;45.184;5.786;2022-12-20T05:55:46;8.68;;;4.50;;
42198;SDS011;27868;45.184;5.786;2022-12-20T06:03:07;10.55;;;4.60;;
42198;SDS011;27868;45.184;5.786;2022-12-20T06:07:01;6.40;;;3.75;;
42198;SDS011;27868;45.184;5.786;2022-12-20T06:14:39;8.77;;;4.35;;
42198;SDS011;27868;45.184;5.786;2022-12-20T06:17:24;8.50;;;4.10;;
42198;SDS011;27868;45.184;5.786;2022-12-20T06:20:28;10.18;;;5.05;;
42198;SDS011;27868;45.184;5.786;2022-12-20T06:24:18;8.10;;;4.05;;
42198;SDS011;27868;45.184;5.786;2022-12-20T06:27:04;7.20;;;3.92;;
42198;SDS011;27868;45.184;5.786;2022-12-20T06:29:52;9.38;;;4.05;;
42198;SDS011;27868;45.184;5.786;2022-12-20T06:32:37;9.65;;;4.65;;
42198;SDS011;27868;45.184;5.786;2022-12-20T06:35:22;10.60;;;4.15;;
42198;SDS011;27868;45.184;5.786;2022-12-20T06:38:07;9.65;;;4.05;;
42198;SDS011;27868;45.184;5.786;2022-12-20T06:40:52;8.23;;;4.53;;
42198;SDS011;27868;45.184;5.786;2022-12-20T06:43:37;7.93;;;4.22;;
42198;SDS011;27868;45.184;5.786;2022-12-20T06:47:23;10.18;;;4.45;;
42198;SDS011;27868;45.184;5.786;2022-12-20T06:51:21;8.80;;;4.30;;
42198;SDS011;27868;45.184;5.786;2022-12-20T06:58:37;10.57;;;3.90;;
42198;SDS011;27868;45.184;5.786;2022-12-20T07:02:15;8.00;;;4.32;;
42198;SDS011;27868;45.184;5.786;2022-12-20T07:05:01;11.00;;;4.60;;
42198;SDS011;27868;45.184;5.786;2022-12-20T07:08:18;9.73;;;4.13;;
42198;SDS011;27868;45.184;5.786;2022-12-20T07:11:53;11.27;;;4.55;;
42198;SDS011;27868;45.184;5.786;2022-12-20T07:15:59;7.93;;;4.38;;
42198;SDS011;27868;45.184;5.786;2022-12-20T07:19:29;11.15;;;4.60;;
42198;SDS011;27868;45.184;5.786;2022-12-20T07:22:14;9.25;;;4.03;;
42198;SDS011;27868;45.184;5.786;2022-12-20T07:24:58;8.80;;;4.72;;
42198;SDS011;27868;45.184;5.786;2022-12-20T07:27:47;8.40;;;4.75;;
42198;SDS011;27868;45.184;5.786;2022-12-20T07:30:44;9.35;;;5.32;;
42198;SDS011;27868;45.184;5.786;2022-12-20T07:34:31;9.15;;;4.63;;
42198;SDS011;27868;45.184;5.786;2022-12-20T07:37:16;9.30;;;4.88;;
42198;SDS011;27868;45.184;5.786;2022-12-20T07:40:00;12.35;;;4.55;;
42198;SDS011;27868;45.184;5.786;2022-12-20T07:42:45;13.35;;;5.05;;
42198;SDS011;27868;45.184;5.786;2022-12-20T07:45:30;7.85;;;4.20;;
42198;SDS011;27868;45.184;5.786;2022-12-20T07:48:23;10.88;;;4.40;;
42198;SDS011;27868;45.184;5.786;2022-12-20T07:51:55;8.95;;;4.35;;
42198;SDS011;27868;45.184;5.786;2022-12-20T07:55:51;8.35;;;4.22;;
42198;SDS011;27868;45.184;5.786;2022-12-20T07:59:07;10.18;;;4.15;;
42198;SDS011;27868;45.184;5.786;2022-12-20T08:01:54;9.82;;;4.07;;
42198;SDS011;27868;45.184;5.786;2022-12-20T08:04:40;8.52;;;3.80;;
42198;SDS011;27868;45.184;5.786;2022-12-20T08:07:26;11.02;;;4.40;;
42198;SDS011;27868;45.184;5.786;2022-12-20T08:10:13;7.20;;;3.47;;
42198;SDS011;27868;45.184;5.786;2022-12-20T08:13:00;8.30;;;3.88;;
42198;SDS011;27868;45.184;5.786;2022-12-20T08:15:46;9.52;;;4.38;;
42198;SDS011;27868;45.184;5.786;2022-12-20T08:18:31;9.07;;;4.03;;
42198;SDS011;27868;45.184;5.786;2022-12-20T08:22:21;9.80;;;4.47;;
42198;SDS011;27868;45.184;5.786;2022-12-20T08:28:50;12.07;;;4.93;;
42198;SDS011;27868;45.184;5.786;2022-12-20T08:36:13;9.32;;;3.90;;
42198;SDS011;27868;45.184;5.786;2022-12-20T08:40:02;9.10;;;4.25;;
42198;SDS011;27868;45.184;5.786;2022-12-20T08:43:15;11.43;;;3.95;;
42198;SDS011;27868;45.184;5.786;2022-12-20T08:45:59;7.13;;;3.67;;
42198;SDS011;27868;45.184;5.786;2022-12-20T08:48:54;7.55;;;3.80;;
42198;SDS011;27868;45.184;5.786;2022-12-20T08:51:59;5.88;;;3.42;;
42198;SDS011;27868;45.184;5.786;2022-12-20T08:56:21;7.18;;;3.90;;
42198;SDS011;27868;45.184;5.786;2022-12-20T08:59:47;8.93;;;4.45;;
42198;SDS011;27868;45.184;5.786;2022-12-20T09:02:33;10.70;;;4.82;;
42198;SDS011;27868;45.184;5.786;2022-12-20T09:05:18;11.85;;;5.00;;
42198;SDS011;27868;45.184;5.786;2022-12-20T09:08:02;6.32;;;4.03;;
42198;SDS011;27868;45.184;5.786;2022-12-20T09:10:47;11.13;;;4.75;;
42198;SDS011;27868;45.184;5.786;2022-12-20T09:13:32;9.68;;;4.50;;
42198;SDS011;27868;45.184;5.786;2022-12-20T09:16:18;12.18;;;5.22;;
42198;SDS011;27868;45.184;5.786;2022-12-20T09:19:05;9.68;;;4.75;;
42198;SDS011;27868;45.184;5.786;2022-12-20T09:21:50;10.23;;;4.82;;
42198;SDS011;27868;45.184;5.786;2022-12-20T09:24:36;9.48;;;4.60;;
42198;SDS011;27868;45.184;5.786;2022-12-20T09:27:21;11.45;;;4.90;;
42198;SDS011;27868;45.184;5.786;2022-12-20T09:30:06;9.30;;;4.53;;
42198;SDS011;27868;45.184;5.786;2022-12-20T09:32:51;10.95;;;4.97;;
42198;SDS011;27868;45.184;5.786;2022-12-20T09:36:27;31.88;;;10.45;;
42198;SDS011;27868;45.184;5.786;2022-12-20T09:39:13;19.55;;;7.45;;
42198;SDS011;27868;45.184;5.786;2022-12-20T09:42:00;11.68;;;5.60;;
42198;SDS011;27868;45.184;5.786;2022-12-20T09:45:50;10.45;;;5.20;;
42198;SDS011;27868;45.184;5.786;2022-12-20T09:48:37;17.92;;;6.57;;
42198;SDS011;27868;45.184;5.786;2022-12-20T09:57:33;17.63;;;6.10;;
42198;SDS011;27868;45.184;5.786;2022-12-20T10:00:23;14.60;;;6.25;;
42198;SDS011;27868;45.184;5.786;2022-12-20T10:03:12;11.65;;;6.00;;
42198;SDS011;27868;45.184;5.786;2022-12-20T10:06:15;16.25;;;6.53;;
42198;SDS011;27868;45.184;5.786;2022-12-20T10:09:27;13.02;;;6.20;;
42198;SDS011;27868;45.184;5.786;2022-12-20T10:22:25;11.52;;;6.28;;
42198;SDS011;27868;45.184;5.786;2022-12-20T10:25:23;12.63;;;6.30;;
42198;SDS011;27868;45.184;5.786;2022-12-20T10:28:14;13.02;;;6.05;;
42198;SDS011;27868;45.184;5.786;2022-12-20T10:31:00;12.88;;;6.50;;
42198;SDS011;27868;45.184;5.786;2022-12-20T10:33:50;14.70;;;6.97;;
42198;SDS011;27868;45.184;5.786;2022-12-20T10:36:35;13.13;;;6.20;;
42198;SDS011;27868;45.184;5.786;2022-12-20T10:39:21;11.68;;;5.68;;
42198;SDS011;27868;45.184;5.786;2022-12-20T10:42:35;16.27;;;6.70;;
42198;SDS011;27868;45.184;5.786;2022-12-20T10:51:17;16.42;;;7.50;;
42198;SDS011;27868;45.184;5.786;2022-12-20T10:54:10;17.98;;;6.25;;
42198;SDS011;27868;45.184;5.786;2022-12-20T10:57:13;15.57;;;6.30;;
42198;SDS011;27868;45.184;5.786;2022-12-20T11:00:06;15.10;;;6.55;;
42198;SDS011;27868;45.184;5.786;2022-12-20T11:03:14;11.23;;;5.45;;
42198;SDS011;27868;45.184;5.786;2022-12-20T11:06:02;11.82;;;6.03;;
42198;SDS011;27868;45.184;5.786;2022-12-20T11:08:48;12.15;;;5.85;;
42198;SDS011;27868;45.184;5.786;2022-12-20T11:11:33;12.07;;;6.20;;
42198;SDS011;27868;45.184;5.786;2022-12-20T11:14:18;18.27;;;6.65;;
42198;SDS011;27868;45.184;5.786;2022-12-20T11:23:02;14.20;;;6.00;;
42198;SDS011;27868;45.184;5.786;2022-12-20T11:35:40;10.45;;;5.10;;
42198;SDS011;27868;45.184;5.786;2022-12-20T11:38:47;9.55;;;5.15;;
42198;SDS011;27868;45.184;5.786;2022-12-20T11:41:37;9.65;;;4.88;;
42198;SDS011;27868;45.184;5.786;2022-12-20T11:44:45;12.75;;;5.38;;
42198;SDS011;27868;45.184;5.786;2022-12-20T11:50:48;15.52;;;6.10;;
42198;SDS011;27868;45.184;5.786;2022-12-20T11:53:57;18.80;;;6.45;;
42198;SDS011;27868;45.184;5.786;2022-12-20T11:56:53;16.30;;;7.55;;
42198;SDS011;27868;45.184;5.786;2022-12-20T11:59:49;19.17;;;8.05;;
42198;SDS011;27868;45.184;5.786;2022-12-20T12:05:39;15.32;;;7.53;;
42198;SDS011;27868;45.184;5.786;2022-12-20T12:18:21;16.23;;;7.18;;
42198;SDS011;27868;45.184;5.786;2022-12-20T12:21:30;14.63;;;7.40;;
42198;SDS011;27868;45.184;5.786;2022-12-20T12:27:14;14.60;;;7.13;;
42198;SDS011;27868;45.184;5.786;2022-12-20T12:30:11;18.15;;;7.13;;
42198;SDS011;27868;45.184;5.786;2022-12-20T12:32:59;18.25;;;7.95;;
42198;SDS011;27868;45.184;5.786;2022-12-20T12:35:54;19.17;;;7.90;;
42198;SDS011;27868;45.184;5.786;2022-12-20T12:42:46;19.02;;;8.65;;
42198;SDS011;27868;45.184;5.786;2022-12-20T12:45:55;15.82;;;8.32;;
42198;SDS011;27868;45.184;5.786;2022-12-20T12:48:50;22.45;;;9.88;;
42198;SDS011;27868;45.184;5.786;2022-12-20T12:51:36;18.25;;;8.68;;
42198;SDS011;27868;45.184;5.786;2022-12-20T12:54:25;18.35;;;8.70;;
42198;SDS011;27868;45.184;5.786;2022-12-20T12:57:20;18.95;;;8.27;;
42198;SDS011;27868;45.184;5.786;2022-12-20T13:00:20;18.48;;;7.25;;
42198;SDS011;27868;45.184;5.786;2022-12-20T13:03:42;11.75;;;6.50;;
42198;SDS011;27868;45.184;5.786;2022-12-20T13:24:27;15.43;;;5.32;;
42198;SDS011;27868;45.184;5.786;2022-12-20T13:33:16;8.25;;;4.95;;
42198;SDS011;27868;45.184;5.786;2022-12-20T13:36:31;13.43;;;5.57;;
42198;SDS011;27868;45.184;5.786;2022-12-20T13:42:12;12.05;;;5.82;;
42198;SDS011;27868;45.184;5.786;2022-12-20T13:45:00;9.93;;;4.75;;
42198;SDS011;27868;45.184;5.786;2022-12-20T13:47:50;12.93;;;5.13;;
42198;SDS011;27868;45.184;5.786;2022-12-20T13:50:40;14.82;;;5.03;;
42198;SDS011;27868;45.184;5.786;2022-12-20T13:53:37;9.50;;;4.07;;
42198;SDS011;27868;45.184;5.786;2022-12-20T13:59:21;7.53;;;3.47;;
42198;SDS011;27868;45.184;5.786;2022-12-20T14:02:16;6.43;;;2.83;;
42198;SDS011;27868;45.184;5.786;2022-12-20T14:05:26;7.32;;;3.40;;
42198;SDS011;27868;45.184;5.786;2022-12-20T14:08:15;9.57;;;3.45;;
42198;SDS011;27868;45.184;5.786;2022-12-20T14:11:12;9.43;;;4.10;;
42198;SDS011;27868;45.184;5.786;2022-12-20T14:16:45;8.20;;;4.20;;
42198;SDS011;27868;45.184;5.786;2022-12-20T14:19:30;9.05;;;4.97;;
42198;SDS011;27868;45.184;5.786;2022-12-20T14:22:15;7.97;;;3.88;;
42198;SDS011;27868;45.184;5.786;2022-12-20T14:25:00;12.15;;;5.03;;
42198;SDS011;27868;45.184;5.786;2022-12-20T14:27:48;8.25;;;2.97;;
42198;SDS011;27868;45.184;5.786;2022-12-20T14:30:36;3.10;;;1.40;;
42198;SDS011;27868;45.184;5.786;2022-12-20T14:33:44;4.18;;;1.20;;
42198;SDS011;27868;45.184;5.786;2022-12-20T14:36:31;4.40;;;0.90;;
42198;SDS011;27868;45.184;5.786;2022-12-20T14:39:27;4.28;;;0.95;;
42198;SDS011;27868;45.184;5.786;2022-12-20T14:42:18;2.42;;;0.90;;
42198;SDS011;27868;45.184;5.786;2022-12-20T14:47:58;2.13;;;0.80;;
42198;SDS011;27868;45.184;5.786;2022-12-20T14:50:52;1.88;;;0.85;;
42198;SDS011;27868;45.184;5.786;2022-12-20T14:53:40;3.33;;;1.23;;
42198;SDS011;27868;45.184;5.786;2022-12-20T14:56:30;4.90;;;1.05;;
42198;SDS011;27868;45.184;5.786;2022-12-20T14:59:20;1.60;;;0.80;;
42198;SDS011;27868;45.184;5.786;2022-12-20T15:05:49;1.77;;;0.80;;
42198;SDS011;27868;45.184;5.786;2022-12-20T15:08:39;4.22;;;1.23;;
42198;SDS011;27868;45.184;5.786;2022-12-20T15:11:25;1.17;;;0.70;;
42198;SDS011;27868;45.184;5.786;2022-12-20T15:17:15;1.70;;;0.60;;
42198;SDS011;27868;45.184;5.786;2022-12-20T15:20:01;1.10;;;0.70;;
42198;SDS011;27868;45.184;5.786;2022-12-20T15:22:46;1.48;;;0.80;;
42198;SDS011;27868;45.184;5.786;2022-12-20T15:25:32;2.53;;;0.70;;
42198;SDS011;27868;45.184;5.786;2022-12-20T15:28:20;1.27;;;0.70;;
42198;SDS011;27868;45.184;5.786;2022-12-20T15:31:09;1.67;;;0.90;;
42198;SDS011;27868;45.184;5.786;2022-12-20T15:33:55;1.92;;;0.70;;
42198;SDS011;27868;45.184;5.786;2022-12-20T15:36:56;2.45;;;0.82;;
42198;SDS011;27868;45.184;5.786;2022-12-20T15:39:43;3.05;;;0.80;;
42198;SDS011;27868;45.184;5.786;2022-12-20T15:42:29;2.00;;;0.70;;
42198;SDS011;27868;45.184;5.786;2022-12-20T15:45:14;3.83;;;1.65;;
42198;SDS011;27868;45.184;5.786;2022-12-20T15:48:01;1.58;;;0.73;;
42198;SDS011;27868;45.184;5.786;2022-12-20T15:50:50;2.83;;;0.82;;
42198;SDS011;27868;45.184;5.786;2022-12-20T15:53:37;1.33;;;0.60;;
42198;SDS011;27868;45.184;5.786;2022-12-20T15:56:22;1.33;;;0.60;;
42198;SDS011;27868;45.184;5.786;2022-12-20T15:59:09;4.13;;;0.73;;
42198;SDS011;27868;45.184;5.786;2022-12-20T16:01:56;3.92;;;0.80;;
42198;SDS011;27868;45.184;5.786;2022-12-20T16:04:41;4.18;;;0.70;;
42198;SDS011;27868;45.184;5.786;2022-12-20T16:07:27;3.10;;;0.82;;
42198;SDS011;27868;45.184;5.786;2022-12-20T16:10:12;1.50;;;0.63;;
42198;SDS011;27868;45.184;5.786;2022-12-20T16:13:01;1.50;;;0.75;;
42198;SDS011;27868;45.184;5.786;2022-12-20T16:15:46;1.80;;;0.57;;
42198;SDS011;27868;45.184;5.786;2022-12-20T16:18:31;2.28;;;0.70;;
42198;SDS011;27868;45.184;5.786;2022-12-20T16:21:25;1.77;;;0.70;;
42198;SDS011;27868;45.184;5.786;2022-12-20T16:24:12;3.00;;;1.05;;
42198;SDS011;27868;45.184;5.786;2022-12-20T16:26:58;1.77;;;0.85;;
42198;SDS011;27868;45.184;5.786;2022-12-20T16:29:43;1.70;;;0.63;;
42198;SDS011;27868;45.184;5.786;2022-12-20T16:32:28;3.15;;;0.80;;
42198;SDS011;27868;45.184;5.786;2022-12-20T16:35:21;1.88;;;0.55;;
42198;SDS011;27868;45.184;5.786;2022-12-20T16:38:08;1.92;;;0.60;;
42198;SDS011;27868;45.184;5.786;2022-12-20T16:40:52;1.63;;;0.60;;
42198;SDS011;27868;45.184;5.786;2022-12-20T16:43:37;1.30;;;0.73;;
42198;SDS011;27868;45.184;5.786;2022-12-20T16:46:23;1.73;;;0.73;;
42198;SDS011;27868;45.184;5.786;2022-12-20T16:49:10;2.63;;;0.80;;
42198;SDS011;27868;45.184;5.786;2022-12-20T16:51:55;2.45;;;0.70;;
42198;SDS011;27868;45.184;5.786;2022-12-20T16:54:40;1.98;;;0.85;;
42198;SDS011;27868;45.184;5.786;2022-12-20T16:57:25;2.97;;;0.60;;
42198;SDS011;27868;45.184;5.786;2022-12-20T17:00:14;2.10;;;0.60;;
42198;SDS011;27868;45.184;5.786;2022-12-20T17:03:01;1.10;;;0.60;;
42198;SDS011;27868;45.184;5.786;2022-12-20T17:05:47;1.45;;;0.63;;
42198;SDS011;27868;45.184;5.786;2022-12-20T17:08:34;1.55;;;0.70;;
42198;SDS011;27868;45.184;5.786;2022-12-20T17:11:26;3.15;;;0.60;;
42198;SDS011;27868;45.184;5.786;2022-12-20T17:14:14;3.08;;;1.00;;
42198;SDS011;27868;45.184;5.786;2022-12-20T17:17:01;2.63;;;1.00;;
42198;SDS011;27868;45.184;5.786;2022-12-20T17:19:46;1.67;;;0.70;;
42198;SDS011;27868;45.184;5.786;2022-12-20T17:22:31;1.75;;;0.70;;
42198;SDS011;27868;45.184;5.786;2022-12-20T17:25:27;3.05;;;0.63;;
42198;SDS011;27868;45.184;5.786;2022-12-20T17:28:14;2.13;;;0.63;;
42198;SDS011;27868;45.184;5.786;2022-12-20T17:30:59;1.50;;;0.60;;
42198;SDS011;27868;45.184;5.786;2022-12-20T17:33:44;3.85;;;1.77;;
42198;SDS011;27868;45.184;5.786;2022-12-20T17:36:28;2.83;;;1.30;;
42198;SDS011;27868;45.184;5.786;2022-12-20T17:39:14;2.72;;;1.20;;
42198;SDS011;27868;45.184;5.786;2022-12-20T17:42:01;4.32;;;0.98;;
42198;SDS011;27868;45.184;5.786;2022-12-20T17:44:47;3.17;;;0.90;;
42198;SDS011;27868;45.184;5.786;2022-12-20T17:47:33;3.17;;;1.20;;
42198;SDS011;27868;45.184;5.786;2022-12-20T17:50:18;2.78;;;1.05;;
42198;SDS011;27868;45.184;5.786;2022-12-20T17:53:03;2.95;;;1.20;;
42198;SDS011;27868;45.184;5.786;2022-12-20T17:55:48;2.22;;;1.25;;
42198;SDS011;27868;45.184;5.786;2022-12-20T17:58:34;3.35;;;1.00;;
42198;SDS011;27868;45.184;5.786;2022-12-20T18:01:25;3.25;;;1.52;;
42198;SDS011;27868;45.184;5.786;2022-12-20T18:04:16;2.70;;;1.10;;
42198;SDS011;27868;45.184;5.786;2022-12-20T18:07:02;2.97;;;1.25;;
42198;SDS011;27868;45.184;5.786;2022-12-20T18:09:48;5.22;;;1.67;;
42198;SDS011;27868;45.184;5.786;2022-12-20T18:12:33;3.03;;;1.15;;
42198;SDS011;27868;45.184;5.786;2022-12-20T18:15:18;5.70;;;1.98;;
42198;SDS011;27868;45.184;5.786;2022-12-20T18:18:03;4.18;;;2.20;;
42198;SDS011;27868;45.184;5.786;2022-12-20T18:20:49;5.28;;;2.70;;
42198;SDS011;27868;45.184;5.786;2022-12-20T18:23:45;6.00;;;3.42;;
42198;SDS011;27868;45.184;5.786;2022-12-20T18:26:31;8.82;;;3.70;;
42198;SDS011;27868;45.184;5.786;2022-12-20T18:29:16;5.40;;;2.38;;
42198;SDS011;27868;45.184;5.786;2022-12-20T18:32:01;4.68;;;2.80;;
42198;SDS011;27868;45.184;5.786;2022-12-20T18:34:46;5.43;;;2.97;;
42198;SDS011;27868;45.184;5.786;2022-12-20T18:37:32;9.63;;;3.05;;
42198;SDS011;27868;45.184;5.786;2022-12-20T18:40:17;7.97;;;3.40;;
42198;SDS011;27868;45.184;5.786;2022-12-20T18:43:05;7.97;;;3.40;;
42198;SDS011;27868;45.184;5.786;2022-12-20T18:45:51;7.22;;;3.30;;
42198;SDS011;27868;45.184;5.786;2022-12-20T18:48:37;7.03;;;3.72;;
42198;SDS011;27868;45.184;5.786;2022-12-20T18:51:24;9.25;;;3.83;;
42198;SDS011;27868;45.184;5.786;2022-12-20T18:54:15;8.25;;;4.50;;
42198;SDS011;27868;45.184;5.786;2022-12-20T18:57:01;7.70;;;4.47;;
42198;SDS011;27868;45.184;5.786;2022-12-20T18:59:50;10.93;;;4.20;;
42198;SDS011;27868;45.184;5.786;2022-12-20T19:02:37;8.02;;;4.40;;
42198;SDS011;27868;45.184;5.786;2022-12-20T19:05:22;8.48;;;4.43;;
42198;SDS011;27868;45.184;5.786;2022-12-20T19:08:07;11.65;;;4.45;;
42198;SDS011;27868;45.184;5.786;2022-12-20T19:10:53;9.00;;;4.57;;
42198;SDS011;27868;45.184;5.786;2022-12-20T19:13:42;11.25;;;4.63;;
42198;SDS011;27868;45.184;5.786;2022-12-20T19:16:28;19.52;;;5.25;;
42198;SDS011;27868;45.184;5.786;2022-12-20T19:19:15;11.68;;;4.93;;
42198;SDS011;27868;45.184;5.786;2022-12-20T19:22:06;8.00;;;4.68;;
42198;SDS011;27868;45.184;5.786;2022-12-20T19:24:51;9.50;;;5.55;;
42198;SDS011;27868;45.184;5.786;2022-12-20T19:27:38;9.50;;;4.80;;
42198;SDS011;27868;45.184;5.786;2022-12-20T19:30:24;11.15;;;5.70;;
42198;SDS011;27868;45.184;5.786;2022-12-20T19:33:11;13.07;;;6.30;;
42198;SDS011;27868;45.184;5.786;2022-12-20T19:35:56;14.43;;;6.82;;
42198;SDS011;27868;45.184;5.786;2022-12-20T19:38:42;13.10;;;6.57;;
42198;SDS011;27868;45.184;5.786;2022-12-20T19:41:30;12.07;;;6.47;;
42198;SDS011;27868;45.184;5.786;2022-12-20T19:44:17;16.75;;;7.07;;
42198;SDS011;27868;45.184;5.786;2022-12-20T19:47:02;16.42;;;7.88;;
42198;SDS011;27868;45.184;5.786;2022-12-20T19:49:51;14.20;;;6.55;;